Flight Track Log - Related Links

Times and Time Zones

All times are in EDT time to prevent confusion due to time zone crossing. See the N870DC flight status page for this flight to view local times or setup timezone preferences in your user account.

Time Position Orientation Groundspeed Altitude Reporting Facility
EDT Latitude Longitude Course Direction KTS MPH feet Rate Location/Type
Wed 02:42:44 PM 43.3919 -84.1858 206° Southwest 253 291 8,200  Level Cleveland Center
Wed 02:43:44 PM 43.3278 -84.2336 208° Southwest 273 314 11,200 3,000 Climbing Cleveland Center
Wed 02:44:44 PM 43.2594 -84.2836 208° Southwest 278 320 14,200 2,650 Climbing Cleveland Center
Wed 02:45:44 PM 43.1869 -84.3419 210° Southwest 283 326 16,500 1,900 Climbing Cleveland Center
Wed 02:46:00 PM 43.4608 -84.1274 206° Southwest  Level Estimated
Wed 02:46:44 PM 43.1044 -84.3739 196° South 296 341 18,000  Level Cleveland Center
Wed 02:47:44 PM 43.0039 -84.3878 186° South 329 379 18,000 600 Level Cleveland Center
Wed 02:48:24 PM 42.9428 -84.3992 188° South 366 421 19,000 1,765 Climbing Chicago Center
Wed 02:49:26 PM 42.8400 -84.4158 187° South 371 427 21,000 1,887 Climbing Chicago Center
Wed 02:50:28 PM 42.7333 -84.4328 187° South 384 442 22,900 2,177 Climbing Chicago Center
Wed 02:51:30 PM 42.6353 -84.4622 192° South 364 419 25,500 2,516 Climbing Chicago Center
Wed 02:52:32 PM 42.5303 -84.5331 206° Southwest 350 403 28,100 2,177 Climbing Chicago Center
Wed 02:53:34 PM 42.4436 -84.5886 205° Southwest 346 398 30,000 1,645 Climbing Chicago Center
Wed 02:54:36 PM 42.3575 -84.6469 207° Southwest 346 398 31,500 968 Climbing Chicago Center
Wed 02:55:38 PM 42.2686 -84.7042 205° Southwest 352 405 32,000 240 Climbing Chicago Center
Wed 02:56:41 PM 42.1764 -84.7625 205° Southwest 364 419 32,000  Level Chicago Center
Wed 02:57:43 PM 42.0867 -84.8231 207° Southwest 361 415 32,000 435 Level Chicago Center
Wed 02:58:45 PM 41.9811 -84.8914 206° Southwest 352 405 32,900 774 Climbing Chicago Center
Wed 02:59:47 PM 41.8975 -84.9458 206° Southwest 353 406 33,600 581 Climbing Chicago Center
Wed 03:00:49 PM 41.8094 -85.0017 205° Southwest 351 404 34,100 726 Climbing Chicago Center
Wed 03:01:51 PM 41.7211 -85.0569 205° Southwest 348 400 35,100 1,161 Climbing Chicago Center
Wed 03:02:53 PM 41.6328 -85.1139 206° Southwest 349 402 36,500 1,403 Climbing Chicago Center
Wed 03:03:55 PM 41.5472 -85.1661 205° Southwest 337 388 38,000 1,258 Climbing Chicago Center
Wed 03:04:57 PM 41.4483 -85.2300 206° Southwest 328 377 39,100 774 Climbing Chicago Center
Wed 03:05:59 PM 41.3681 -85.2819 206° Southwest 320 368 39,600 432 Climbing Chicago Center
Wed 03:07:02 PM 41.2853 -85.3339 205° Southwest 324 373 40,000 192 Climbing Chicago Center
Wed 03:08:04 PM 41.2008 -85.3881 206° Southwest 332 382 40,000  Level Chicago Center
Wed 03:09:06 PM 41.1136 -85.4453 206° Southwest 346 398 40,000  Level Chicago Center
Wed 03:10:08 PM 41.0258 -85.4994 205° Southwest 349 402 40,000  Level Chicago Center
Wed 03:11:10 PM 40.9381 -85.5542 205° Southwest 348 400 40,000  Level Chicago Center
Wed 03:12:12 PM 40.8317 -85.6208 205° Southwest 352 405 40,000  Level Chicago Center
Wed 03:13:14 PM 40.7444 -85.6758 206° Southwest 349 402 40,000  Level Chicago Center
Wed 03:14:16 PM 40.6614 -85.7281 206° Southwest 349 402 40,000  Level Chicago Center
Wed 03:15:18 PM 40.5736 -85.7822 205° Southwest 351 404 40,000  Level Chicago Center
Wed 03:16:20 PM 40.4692 -85.8450 205° Southwest 346 398 40,000  Level Chicago Center
Wed 03:17:22 PM 40.3836 -85.8983 205° Southwest 342 394 40,000  Level Chicago Center
Wed 03:18:24 PM 40.2978 -85.9511 205° Southwest 340 391 40,000  Level Chicago Center
Wed 03:19:27 PM 40.2117 -86.0044 205° Southwest 342 394 40,000  Level Chicago Center
Wed 03:20:29 PM 40.1267 -86.0547 204° Southwest 338 389 40,000  Level Chicago Center
Wed 03:21:31 PM 40.0258 -86.1164 205° Southwest 332 382 40,000  Level Chicago Center
Wed 03:22:33 PM 39.9425 -86.1669 205° Southwest 331 381 40,000  Level Chicago Center
Wed 03:23:35 PM 39.8589 -86.2178 205° Southwest 329 379 40,000  Level Chicago Center
Wed 03:24:37 PM 39.7672 -86.2747 206° Southwest 333 383 40,000  Level Chicago Center
Wed 03:25:39 PM 39.6850 -86.3231 204° Southwest 328 377 40,000  Level Chicago Center
Wed 03:26:41 PM 39.5986 -86.3739 204° Southwest 331 381 40,000  Level Chicago Center
Wed 03:27:43 PM 39.5172 -86.4228 205° Southwest 325 374 40,000  Level Chicago Center
Wed 03:28:45 PM 39.4356 -86.4722 205° Southwest 324 373 40,000  Level Chicago Center
Wed 03:29:47 PM 39.3536 -86.5203 204° Southwest 325 374 40,000  Level Chicago Center
Wed 03:31:09 PM 39.2392 -86.5875 204° Southwest 326 375 40,000  Level Indianapolis Center
Wed 03:32:11 PM 39.1572 -86.6353 204° Southwest 325 374 40,000  Level Indianapolis Center
Wed 03:33:13 PM 39.0672 -86.6883 205° Southwest 323 372 40,000  Level Indianapolis Center
Wed 03:34:15 PM 38.9850 -86.7369 205° Southwest 325 374 40,000  Level Indianapolis Center
Wed 03:35:17 PM 38.9033 -86.7856 205° Southwest 322 371 40,000  Level Indianapolis Center
Wed 03:36:19 PM 38.8042 -86.8425 204° Southwest 323 372 40,000  Level Indianapolis Center
Wed 03:37:21 PM 38.7214 -86.8900 204° Southwest 323 372 40,000  Level Indianapolis Center
Wed 03:38:23 PM 38.6381 -86.9383 204° Southwest 325 374 40,000  Level Indianapolis Center
Wed 03:39:25 PM 38.5550 -86.9869 205° Southwest 328 377 40,000  Level Indianapolis Center
Wed 03:40:27 PM 38.4731 -87.0353 205° Southwest 324 373 40,000  Level Indianapolis Center
Wed 03:41:28 PM 38.3847 -87.0850 204° Southwest 329 379 40,000  Level Indianapolis Center
Wed 03:42:30 PM 38.3017 -87.1331 204° Southwest 328 377 40,000  Level Indianapolis Center
Wed 03:43:32 PM 38.2192 -87.1811 205° Southwest 329 379 40,000  Level Indianapolis Center
Wed 03:44:34 PM 38.1275 -87.2336 204° Southwest 330 380 40,000  Level Indianapolis Center
Wed 03:45:36 PM 38.0436 -87.2814 204° Southwest 329 379 40,000  Level Indianapolis Center
Wed 03:46:38 PM 37.9589 -87.3297 204° Southwest 331 381 40,000  Level Indianapolis Center
Wed 03:47:40 PM 37.8756 -87.3772 204° Southwest 329 379 40,000  Level Indianapolis Center
Wed 03:48:42 PM 37.7781 -87.4325 204° Southwest 330 380 40,000  Level Indianapolis Center
Wed 03:49:44 PM 37.6922 -87.4803 204° Southwest 332 382 40,000  Level Indianapolis Center
Wed 03:50:46 PM 37.6067 -87.5283 204° Southwest 334 384 40,000  Level Indianapolis Center
Wed 03:51:48 PM 37.5222 -87.5761 204° Southwest 331 381 40,000  Level Indianapolis Center
Wed 03:52:50 PM 37.4358 -87.6244 204° Southwest 335 386 40,000  Level Indianapolis Center
Wed 03:54:02 PM 37.3200 -87.6914 205° Southwest 332 382 40,000  Level Memphis Center
Wed 03:55:02 PM 37.2356 -87.7386 204° Southwest 332 382 40,000  Level Memphis Center
Wed 03:56:02 PM 37.1489 -87.7858 203° Southwest 332 382 40,000  Level Memphis Center
Wed 03:57:02 PM 37.0644 -87.8325 204° Southwest 337 388 40,000  Level Memphis Center
Wed 03:58:02 PM 36.9781 -87.8794 203° Southwest 332 382 40,000  Level Memphis Center
Wed 03:59:00 PM 36.8886 -87.9227 201° Southwest  Level FlightAware Approximate
Wed 04:00:02 PM 36.8131 -87.9728 201° Southwest 337 388 40,000  Level Memphis Center
Wed 04:01:02 PM 36.7264 -88.0194 203° Southwest 337 388 40,000  Level Memphis Center
Wed 04:02:02 PM 36.6397 -88.0711 206° Southwest 337 388 40,000  Level Memphis Center
Wed 04:03:02 PM 36.5531 -88.1175 203° Southwest 342 394 40,000  Level Memphis Center
Wed 04:04:02 PM 36.4561 -88.1639 201° Southwest 342 394 40,000  Level Memphis Center
Wed 04:05:02 PM 36.3714 -88.2100 204° Southwest 342 394 40,000  Level Memphis Center
Wed 04:06:02 PM 36.2825 -88.2586 204° Southwest 342 394 40,000  Level Memphis Center
Wed 04:07:02 PM 36.1936 -88.3047 203° Southwest 342 394 40,000  Level Memphis Center
Wed 04:08:02 PM 36.1047 -88.3506 203° Southwest 347 399 40,000  Level Memphis Center
Wed 04:09:02 PM 36.0261 -88.3936 204° Southwest 347 399 40,000  Level Memphis Center
Wed 04:10:02 PM 35.9394 -88.4419 204° Southwest 352 405 40,000  Level Memphis Center
Wed 04:11:02 PM 35.8506 -88.4875 203° Southwest 352 405 40,000  Level Memphis Center
Wed 04:12:02 PM 35.7614 -88.5356 204° Southwest 352 405 40,000  Level Memphis Center
Wed 04:13:02 PM 35.6744 -88.5808 203° Southwest 352 405 40,000  Level Memphis Center
Wed 04:14:02 PM 35.5875 -88.6286 204° Southwest 357 411 40,000  Level Memphis Center
Wed 04:15:02 PM 35.4967 -88.6764 203° Southwest 357 411 40,000  Level Memphis Center
Wed 04:16:02 PM 35.4056 -88.7267 204° Southwest 343 395 40,000  Level Memphis Center
Wed 04:17:02 PM 35.3206 -88.7717 203° Southwest 338 389 40,000  Level Memphis Center
Wed 04:18:02 PM 35.2292 -88.8167 202° Southwest 343 395 40,000  Level Memphis Center
Wed 04:19:02 PM 35.1422 -88.8614 203° Southwest 349 402 40,000  Level Memphis Center
Wed 04:20:02 PM 35.0531 -88.9086 203° Southwest 354 407 40,000  Level Memphis Center
Wed 04:21:02 PM 34.9744 -88.9531 205° Southwest 354 407 40,000  Level Memphis Center
Wed 04:22:02 PM 34.8850 -88.9978 202° Southwest 354 407 40,000  Level Memphis Center
Wed 04:23:02 PM 34.7981 -89.0419 203° Southwest 354 407 40,000  Level Memphis Center
Wed 04:24:02 PM 34.7086 -89.0864 202° Southwest 354 407 40,000  Level Memphis Center
Wed 04:25:02 PM 34.6194 -89.1306 202° Southwest 354 407 40,000  Level Memphis Center
Wed 04:26:02 PM 34.5239 -89.1850 205° Southwest 354 407 40,000  Level Memphis Center
Wed 04:27:02 PM 34.4347 -89.2289 202° Southwest 354 407 40,000  Level Memphis Center
Wed 04:28:02 PM 34.3475 -89.2753 204° Southwest 354 407 40,000  Level Memphis Center
Wed 04:29:02 PM 34.2603 -89.3217 204° Southwest 354 407 40,000  Level Memphis Center
Wed 04:30:02 PM 34.1728 -89.3656 203° Southwest 354 407 40,000  Level Memphis Center
Wed 04:31:02 PM 34.0856 -89.4092 202° Southwest 354 407 40,000  Level Memphis Center
Wed 04:32:02 PM 34.0044 -89.4500 203° Southwest 354 407 40,000  Level Memphis Center
Wed 04:33:02 PM 33.9192 -89.4961 204° Southwest 354 407 40,000  Level Memphis Center
Wed 04:34:02 PM 33.8297 -89.5419 203° Southwest 354 407 40,000  Level Memphis Center
Wed 04:35:02 PM 33.7383 -89.5928 205° Southwest 349 402 40,000  Level Memphis Center
Wed 04:36:02 PM 33.6508 -89.6361 202° Southwest 344 396 40,000  Level Memphis Center
Wed 04:37:02 PM 33.5656 -89.6792 203° Southwest 344 396 40,000  Level Memphis Center
Wed 04:38:02 PM 33.4761 -89.7247 203° Southwest 339 390 40,000  Level Memphis Center
Wed 04:39:02 PM 33.3906 -89.7675 203° Southwest 339 390 40,000  Level Memphis Center
Wed 04:40:02 PM 33.3053 -89.8103 203° Southwest 339 390 40,000  Level Memphis Center
Wed 04:41:02 PM 33.2200 -89.8531 203° Southwest 339 390 40,000 -450 Level Memphis Center
Wed 04:42:02 PM 33.1303 -89.9008 204° Southwest 339 390 39,100 -500 Descending Memphis Center
Wed 04:43:02 PM 33.0367 -89.9458 202° Southwest 351 404 39,000 -50 Descending Memphis Center
Wed 04:44:02 PM 32.9511 -89.9883 203° Southwest 363 418 39,000  Level Memphis Center
Wed 04:45:02 PM 32.8614 -90.0333 203° Southwest 369 425 39,000 -200 Level Memphis Center
Wed 04:46:02 PM 32.7739 -90.0756 202° Southwest 358 412 38,600 -700 Descending Memphis Center
Wed 04:47:02 PM 32.6842 -90.1178 202° Southwest 347 399 37,600 -1,000 Descending Memphis Center
Wed 04:48:02 PM 32.5967 -90.1575 201° Southwest 347 399 36,600 -1,000 Descending Memphis Center
Wed 04:49:02 PM 32.5069 -90.2044 204° Southwest 347 399 35,600 -1,000 Descending Memphis Center
Wed 04:50:02 PM 32.4192 -90.2467 202° Southwest 352 405 34,600 -1,000 Descending Memphis Center
Wed 04:51:02 PM 32.3294 -90.2908 203° Southwest 357 411 33,600 -1,000 Descending Memphis Center
Wed 04:52:02 PM 32.2356 -90.3253 197° South 357 411 32,600 -950 Descending Memphis Center
Wed 04:53:02 PM 32.1436 -90.2789 157° South 341 392 31,700 -1,032 Descending Memphis Center
Wed 04:53:35 PM 32.0892 -90.2322 144° Southeast 375 432 31,000 -1,074 Descending Houston Center
Wed 04:54:37 PM 31.9986 -90.1708 150° Southeast 375 432 30,000 -968 Descending Houston Center
Wed 04:55:39 PM 31.9078 -90.1122 151° Southeast 374 430 29,000 -484 Descending Houston Center
Wed 04:56:41 PM 31.8111 -90.0697 160° South 371 427 29,000  Level Houston Center
Wed 04:57:43 PM 31.7056 -90.0333 164° South 391 450 29,000  Level Houston Center
Wed 04:58:45 PM 31.5994 -90.0019 166° South 393 452 29,000 -288 Level Houston Center
Wed 04:59:48 PM 31.4747 -89.9644 166° South 388 447 28,400 -1,296 Descending Houston Center
Wed 05:00:50 PM 31.3806 -89.9842 190° South 345 397 26,300 -2,032 Descending Houston Center
Wed 05:01:52 PM 31.2947 -90.0106 195° South 324 373 24,200 -1,742 Descending Houston Center
Wed 05:02:54 PM 31.2169 -90.0458 201° Southwest 303 349 22,700 -1,452 Descending Houston Center
Wed 05:03:56 PM 31.1478 -90.0792 202° Southwest 276 318 21,200 -1,597 Descending Houston Center
Wed 05:04:58 PM 31.0642 -90.1203 203° Southwest 272 313 19,400 -1,597 Descending Houston Center
Wed 05:06:00 PM 30.9983 -90.1653 210° Southwest 273 314 17,900 -1,452 Descending Houston Center
Wed 05:07:02 PM 30.9339 -90.2072 209° Southwest 269 310 16,400 -1,632 Descending Houston Center
Wed 05:08:05 PM 30.8681 -90.2528 211° Southwest 273 314 14,500 -1,872 Descending Houston Center
Wed 05:09:07 PM 30.8031 -90.3042 214° Southwest 283 326 12,500 -1,742 Descending Houston Center
Wed 05:10:09 PM 30.7283 -90.3781 220° Southwest 291 335 10,900 -774 Descending Houston Center
Wed 05:11:11 PM 30.6728 -90.4414 224° Southwest 286 329 10,900  Level Houston Center
Wed 05:12:13 PM 30.6203 -90.5100 228° Southwest 284 327 10,900  Level Houston Center
Wed 05:13:15 PM 30.5675 -90.5783 228° Southwest 285 328 10,900 -387 Level Houston Center
Wed 05:14:17 PM 30.5161 -90.6511 231° Southwest 288 331 10,100 -1,113 Descending Houston Center
Wed 05:15:19 PM 30.4708 -90.7264 235° Southwest 289 333 8,600 -1,536 Descending Houston Center
Wed 05:16:22 PM 30.4167 -90.8208 236° Southwest 293 337 6,900 -1,488 Descending Houston Center
Wed 05:17:24 PM 30.3731 -90.9000 237° Southwest 293 337 5,500 -1,355 Descending Houston Center
Wed 05:18:26 PM 30.3322 -90.9789 239° Southwest 291 335 4,100 -1,258 Descending Houston Center
Wed 05:19:28 PM 30.2906 -91.0558 238° Southwest 286 329 2,900 -581 Descending Houston Center
Wed 05:20:30 PM 30.2508 -91.1303 238° Southwest 281 323 2,900  Level Houston Center
Wed 05:21:32 PM 30.2058 -91.2125 238° Southwest 279 321 2,900  Level Houston Center
Wed 05:23:00 PM 30.3407 -91.1867 North  Level Estimated
Wed 05:30:00 PM 30.5329 -91.1499 North  Level Estimated
Wed 05:31:00 PM 30.5329 -91.1499 148° Southeast  Level Estimated
Wed 05:32:00 PM 30.5329 -91.1499 148° Southeast  Level Estimated
Wed 05:33:00 PM 30.5329 -91.1499 148° Southeast  Level Estimated
Wed 05:34:00 PM 30.5329 -91.1499 148° Southeast  Level Estimated
Wed 05:35:00 PM 30.5329 -91.1499 148° Southeast  Level Estimated
Wed 05:36:00 PM 30.5329 -91.1499 148° Southeast  Level Estimated
Wed 05:37:00 PM 30.5329 -91.1499 148° Southeast  Level Estimated
Wed 05:38:00 PM 30.5329 -91.1499 148° Southeast  Level Estimated

Login

Don't have an account? Register now (free) for customized features, flight alerts, and more!